Time;durP1;ratioP1;P1;durP2;ratioP2;P2;SDS_P1;SDS_P2;PMS_P1;PMS_P2;Temp;Humidity;BMP_temperature;BMP_pressure;BME280_temperature;BME280_humidity;BME280_pressure;Samples;Min_cycle;Max_cycle;Signal;HPM_P1;HPM_P2
2022/09/09 00:02:08;;;;;;;7.93;2.20;;;38.60;41.80;;;;;;5068032;28;20117;-62
2022/09/09 00:04:40;;;;;;;21.88;2.20;;;38.50;42.00;;;;;;5066167;28;20483;-63
2022/09/09 00:07:36;;;;;;;14.65;2.00;;;38.40;42.80;;;;;;5070711;28;20043;-65
2022/09/09 00:10:26;;;;;;;16.80;2.20;;;38.30;41.60;;;;;;5085200;28;20028;-63
2022/09/09 00:13:23;;;;;;;20.23;2.75;;;38.20;42.60;;;;;;5086115;28;20356;-63
2022/09/09 00:16:00;;;;;;;15.05;2.92;;;38.20;42.30;;;;;;5071835;28;20031;-64
2022/09/09 00:18:56;;;;;;;15.18;2.88;;;38.10;42.40;;;;;;5066574;28;20032;-63
2022/09/09 00:21:50;;;;;;;22.48;3.33;;;38.00;43.20;;;;;;5067363;28;20025;-64
2022/09/09 00:24:20;;;;;;;16.38;2.70;;;37.90;42.90;;;;;;5067616;28;20483;-63
2022/09/09 00:26:51;;;;;;;19.05;2.80;;;37.90;42.70;;;;;;5088021;28;20055;-64
2022/09/09 00:29:41;;;;;;;16.65;2.67;;;37.80;43.30;;;;;;5066984;28;20386;-64
2022/09/09 00:32:17;;;;;;;19.77;2.58;;;37.80;43.30;;;;;;5066606;28;20028;-63
2022/09/09 00:35:02;;;;;;;16.15;2.78;;;37.70;42.60;;;;;;5071337;28;20057;-63
2022/09/09 00:37:31;;;;;;;20.88;2.55;;;37.70;42.60;;;;;;5065759;28;20036;-64
2022/09/09 00:40:02;;;;;;;16.08;2.65;;;37.70;43.00;;;;;;5067454;28;20020;-63
2022/09/09 00:42:45;;;;;;;12.98;3.35;;;37.70;42.60;;;;;;5070730;28;20101;-64
2022/09/09 00:45:49;;;;;;;14.88;6.13;;;37.60;43.10;;;;;;5071329;28;20478;-64
2022/09/09 00:48:16;;;;;;;21.77;4.93;;;37.60;43.40;;;;;;5070628;28;20024;-63
2022/09/09 00:50:43;;;;;;;20.67;3.38;;;37.60;44.40;;;;;;5070037;28;20032;-64
2022/09/09 00:53:22;;;;;;;21.58;3.00;;;37.60;44.20;;;;;;5068159;28;20028;-63
2022/09/09 00:56:01;;;;;;;32.30;3.80;;;37.50;44.50;;;;;;5064400;28;20039;-64
2022/09/09 00:58:27;;;;;;;20.67;3.83;;;37.50;44.90;;;;;;5085288;28;20017;-63
2022/09/09 01:01:10;;;;;;;31.90;4.10;;;37.40;44.10;;;;;;5067867;28;20017;-63
2022/09/09 01:03:45;;;;;;;30.60;3.63;;;37.40;44.50;;;;;;5051824;28;20560;-64
2022/09/09 01:06:38;;;;;;;32.63;3.78;;;37.30;44.60;;;;;;5069868;28;20037;-63
2022/09/09 01:09:23;;;;;;;20.95;3.72;;;37.30;44.70;;;;;;5071486;28;20036;-64
2022/09/09 01:12:16;;;;;;;19.33;3.28;;;37.20;44.50;;;;;;5071203;28;20028;-64
2022/09/09 01:14:54;;;;;;;27.13;3.47;;;37.10;44.50;;;;;;5082536;28;20025;-64
2022/09/09 01:17:41;;;;;;;24.02;2.90;;;37.20;44.60;;;;;;5066734;28;20032;-63
2022/09/09 01:20:19;;;;;;;24.45;3.25;;;37.20;44.90;;;;;;5072203;28;20032;-64
2022/09/09 01:23:10;;;;;;;28.85;3.45;;;37.00;44.40;;;;;;5086440;28;20454;-63
2022/09/09 01:26:14;;;;;;;20.20;2.90;;;37.00;45.10;;;;;;5087582;28;20402;-64
2022/09/09 01:28:44;;;;;;;20.65;2.60;;;36.90;44.80;;;;;;5084666;28;20658;-65
2022/09/09 01:31:16;;;;;;;15.88;2.72;;;36.90;45.00;;;;;;5068521;28;20051;-64
2022/09/09 01:33:42;;;;;;;14.75;2.97;;;36.90;45.30;;;;;;5085078;28;20025;-65
2022/09/09 01:36:14;;;;;;;18.17;2.75;;;36.90;45.40;;;;;;5072632;28;20115;-63
2022/09/09 01:38:41;;;;;;;9.43;2.47;;;36.90;45.20;;;;;;5066437;28;20111;-64
2022/09/09 01:41:07;;;;;;;16.50;3.38;;;36.80;44.50;;;;;;5068846;28;20107;-63
2022/09/09 01:43:34;;;;;;;22.85;3.10;;;36.70;44.40;;;;;;5066676;28;20020;-64
2022/09/09 01:46:02;;;;;;;22.20;3.33;;;36.70;44.50;;;;;;5071465;28;20054;-66
2022/09/09 01:48:29;;;;;;;19.92;2.72;;;36.60;44.50;;;;;;5070132;28;20024;-66
2022/09/09 01:57:10;;;;;;;31.27;3.90;;;36.30;45.20;;;;;;5068107;28;20547;-66
2022/09/09 02:00:08;;;;;;;24.13;3.30;;;36.40;45.30;;;;;;5065114;28;20081;-64
2022/09/09 02:02:38;;;;;;;17.63;2.72;;;36.30;45.20;;;;;;5088550;28;20027;-65
2022/09/09 02:05:17;;;;;;;22.77;3.30;;;36.20;45.20;;;;;;5064536;28;20028;-65
2022/09/09 02:07:48;;;;;;;28.90;3.42;;;36.20;45.40;;;;;;5085613;28;20773;-66
2022/09/09 02:10:44;;;;;;;22.35;3.13;;;36.10;45.50;;;;;;5074053;28;20021;-66
2022/09/09 02:13:13;;;;;;;20.65;3.85;;;36.10;45.80;;;;;;5072707;28;20029;-66
2022/09/09 02:15:45;;;;;;;23.02;4.30;;;36.00;45.90;;;;;;5069876;28;20375;-65
2022/09/09 02:18:15;;;;;;;25.67;4.53;;;35.90;45.60;;;;;;5075982;28;20024;-65
2022/09/09 02:20:43;;;;;;;22.88;4.50;;;35.90;45.70;;;;;;5070791;28;20601;-66
2022/09/09 02:23:11;;;;;;;24.55;4.93;;;35.90;45.90;;;;;;5074715;28;20139;-65
2022/09/09 02:25:39;;;;;;;23.98;4.82;;;35.90;45.90;;;;;;5075855;28;20723;-65
2022/09/09 02:28:10;;;;;;;29.52;4.45;;;35.90;46.30;;;;;;5076173;28;20028;-65
2022/09/09 02:30:38;;;;;;;22.98;4.60;;;35.80;46.20;;;;;;5073023;28;20028;-65
2022/09/09 02:33:07;;;;;;;21.00;6.22;;;35.80;46.40;;;;;;5075062;28;20060;-65
2022/09/09 02:35:37;;;;;;;31.30;6.05;;;35.70;46.40;;;;;;5074152;28;20145;-66
2022/09/09 02:38:09;;;;;;;22.02;5.70;;;35.70;46.30;;;;;;5068251;28;20036;-66
2022/09/09 02:40:36;;;;;;;31.10;4.97;;;35.70;46.50;;;;;;5070771;28;20031;-65
2022/09/09 02:43:02;;;;;;;32.15;4.70;;;35.70;46.50;;;;;;5074883;28;20020;-66
2022/09/09 02:45:50;;;;;;;26.42;4.47;;;35.70;46.40;;;;;;5053281;28;20052;-67
2022/09/09 02:48:23;;;;;;;32.60;5.07;;;35.60;46.40;;;;;;5082641;28;20027;-68
2022/09/09 02:50:55;;;;;;;53.15;6.03;;;35.60;46.50;;;;;;5070277;28;20045;-67
2022/09/09 02:53:29;;;;;;;43.13;6.95;;;35.50;46.60;;;;;;5071314;28;20456;-66
2022/09/09 02:56:20;;;;;;;65.05;8.18;;;35.50;46.60;;;;;;5069034;28;20475;-65
2022/09/09 02:58:46;;;;;;;46.72;7.50;;;35.50;46.50;;;;;;5073823;28;20031;-66
2022/09/09 03:01:13;;;;;;;42.97;6.25;;;35.50;46.70;;;;;;5068444;28;20039;-66
2022/09/09 03:03:41;;;;;;;29.83;5.75;;;35.50;46.90;;;;;;5071033;28;20042;-66
2022/09/09 03:06:07;;;;;;;40.53;5.78;;;35.40;47.10;;;;;;5068393;28;20055;-66
2022/09/09 03:08:34;;;;;;;31.30;5.30;;;35.50;47.30;;;;;;5073468;28;20039;-64
2022/09/09 03:11:01;;;;;;;31.17;4.38;;;35.40;47.30;;;;;;5068117;28;20131;-65
2022/09/09 03:13:27;;;;;;;38.33;5.70;;;35.40;47.40;;;;;;5067133;28;20546;-67
2022/09/09 03:15:54;;;;;;;43.88;5.22;;;35.30;47.60;;;;;;5069493;28;20104;-66
2022/09/09 03:18:20;;;;;;;34.42;4.82;;;35.30;47.70;;;;;;5073185;28;20052;-64
2022/09/09 03:20:50;;;;;;;27.95;4.45;;;35.30;47.90;;;;;;5070956;28;20031;-65
2022/09/09 03:23:17;;;;;;;26.38;3.38;;;35.20;48.00;;;;;;5072189;28;20058;-67
2022/09/09 03:25:51;;;;;;;21.13;3.30;;;35.20;48.10;;;;;;5035883;28;20062;-65
2022/09/09 03:28:17;;;;;;;27.38;3.60;;;35.20;48.20;;;;;;5071339;28;20037;-67
2022/09/09 03:30:44;;;;;;;30.00;4.75;;;35.20;48.40;;;;;;5071969;28;20032;-65
2022/09/09 03:33:10;;;;;;;24.75;4.15;;;35.20;48.50;;;;;;5073108;28;20040;-66
2022/09/09 03:35:37;;;;;;;27.67;4.00;;;35.10;48.60;;;;;;5067644;28;20029;-65
2022/09/09 03:38:03;;;;;;;38.17;4.50;;;35.10;48.80;;;;;;5090486;28;20090;-66
2022/09/09 03:40:30;;;;;;;33.22;4.90;;;35.10;48.90;;;;;;5052807;28;20031;-65
2022/09/09 03:42:57;;;;;;;24.73;4.32;;;35.00;48.90;;;;;;5071374;28;20152;-65
2022/09/09 03:45:23;;;;;;;24.05;4.22;;;35.00;48.90;;;;;;5067004;28;20021;-68
2022/09/09 03:47:49;;;;;;;23.05;4.43;;;35.00;49.00;;;;;;5067970;28;20063;-66
2022/09/09 03:50:18;;;;;;;27.23;4.22;;;35.00;49.00;;;;;;5067486;28;20091;-66
2022/09/09 03:52:44;;;;;;;41.78;4.60;;;35.00;49.20;;;;;;5067899;28;20385;-65
2022/09/09 03:55:10;;;;;;;42.42;4.93;;;35.00;49.30;;;;;;5066828;28;20496;-66
2022/09/09 03:57:37;;;;;;;24.63;4.10;;;34.90;49.30;;;;;;5071980;28;20406;-70
2022/09/09 04:00:05;;;;;;;22.45;3.40;;;34.80;49.20;;;;;;5086203;28;20040;-65
2022/09/09 04:02:31;;;;;;;31.58;4.00;;;34.80;49.30;;;;;;5071317;28;20093;-65
2022/09/09 04:04:58;;;;;;;27.10;4.15;;;34.70;49.30;;;;;;5066695;28;20523;-63
2022/09/09 04:07:24;;;;;;;31.60;3.35;;;34.70;49.50;;;;;;5064992;28;20271;-64
2022/09/09 04:09:51;;;;;;;38.28;4.18;;;34.70;49.60;;;;;;5066085;28;20036;-64
2022/09/09 04:12:17;;;;;;;17.45;3.47;;;34.70;49.70;;;;;;5066972;28;20059;-64
2022/09/09 04:14:44;;;;;;;29.63;4.13;;;34.60;49.80;;;;;;5051282;28;20036;-67
2022/09/09 04:17:10;;;;;;;29.67;4.03;;;34.60;49.90;;;;;;5066459;28;20056;-66
2022/09/09 04:19:37;;;;;;;36.72;4.03;;;34.60;50.10;;;;;;5067293;28;20430;-66
2022/09/09 04:22:04;;;;;;;27.08;3.95;;;34.60;50.30;;;;;;5073104;28;20043;-68
2022/09/09 04:24:30;;;;;;;23.50;4.25;;;34.50;50.50;;;;;;5067701;28;20587;-65
2022/09/09 04:26:57;;;;;;;23.88;4.47;;;34.50;50.60;;;;;;5066075;28;20039;-65
2022/09/09 04:29:23;;;;;;;25.25;4.05;;;34.50;50.50;;;;;;5073163;28;20030;-64
2022/09/09 04:31:49;;;;;;;20.88;4.60;;;34.40;50.60;;;;;;5071115;28;20079;-65
2022/09/09 04:34:16;;;;;;;23.95;4.03;;;34.40;50.70;;;;;;5071831;28;20040;-67
2022/09/09 04:36:42;;;;;;;24.92;3.70;;;34.40;51.10;;;;;;5068446;28;20143;-65
2022/09/09 04:39:09;;;;;;;28.25;3.70;;;34.30;51.20;;;;;;5067585;28;20033;-65
2022/09/09 04:41:35;;;;;;;15.80;3.38;;;34.30;51.60;;;;;;5065293;28;20039;-65
2022/09/09 04:44:02;;;;;;;22.98;3.63;;;34.30;51.90;;;;;;5067207;28;20048;-68
2022/09/09 04:46:29;;;;;;;19.65;3.15;;;34.30;51.90;;;;;;5066234;28;20039;-65
2022/09/09 04:48:55;;;;;;;22.98;3.38;;;34.30;51.70;;;;;;5066259;28;20037;-68
2022/09/09 04:51:21;;;;;;;23.00;3.65;;;34.20;51.90;;;;;;5072034;28;20462;-66
2022/09/09 04:53:49;;;;;;;25.52;4.40;;;34.20;52.20;;;;;;5067102;28;20028;-66
2022/09/09 04:56:17;;;;;;;23.05;5.28;;;34.20;88.70;;;;;;5068042;28;20082;-64
2022/09/09 04:58:45;;;;;;;20.33;6.43;;;34.30;73.40;;;;;;5072529;28;20032;-64
2022/09/09 05:01:17;;;;;;;26.17;8.02;;;34.00;60.80;;;;;;5065992;28;20505;-64
2022/09/09 05:03:45;;;;;;;32.13;7.95;;;34.10;52.70;;;;;;5075544;28;20193;-65
2022/09/09 05:06:14;;;;;;;28.10;8.10;;;34.10;52.90;;;;;;5052020;28;20049;-66
2022/09/09 05:08:42;;;;;;;24.48;7.63;;;34.00;52.80;;;;;;5073335;28;20369;-65
2022/09/09 05:11:23;;;;;;;24.80;6.45;;;34.00;53.00;;;;;;5067861;28;20042;-64
2022/09/09 05:13:50;;;;;;;22.08;5.10;;;34.00;52.90;;;;;;5086580;28;20033;-65
2022/09/09 05:16:17;;;;;;;16.73;2.95;;;33.90;52.70;;;;;;5072665;28;20601;-64
2022/09/09 05:18:44;;;;;;;15.50;2.42;;;33.90;52.70;;;;;;5051444;28;20041;-66
2022/09/09 05:21:12;;;;;;;12.43;3.15;;;33.90;52.80;;;;;;5053735;28;20024;-64
2022/09/09 05:23:39;;;;;;;13.70;2.95;;;33.80;52.80;;;;;;5052189;28;20045;-65
2022/09/09 05:26:09;;;;;;;9.05;3.08;;;33.80;53.10;;;;;;5066937;28;20046;-65
2022/09/09 05:28:35;;;;;;;12.55;2.47;;;33.80;52.90;;;;;;5069872;28;20038;-64
2022/09/09 05:31:05;;;;;;;11.95;4.13;;;33.70;53.10;;;;;;5066355;28;20128;-66
2022/09/09 05:33:33;;;;;;;22.55;3.50;;;33.70;53.20;;;;;;5067638;28;20049;-64
2022/09/09 05:36:13;;;;;;;14.15;3.80;;;33.70;53.30;;;;;;5071083;28;20463;-66
2022/09/09 05:38:40;;;;;;;28.55;3.67;;;33.70;53.50;;;;;;5069999;28;20100;-64
2022/09/09 05:41:09;;;;;;;24.45;3.72;;;33.70;53.70;;;;;;5073317;28;20034;-65
2022/09/09 05:43:35;;;;;;;20.98;4.80;;;33.60;53.70;;;;;;5075826;28;20067;-67
2022/09/09 05:46:07;;;;;;;27.38;4.85;;;33.50;53.90;;;;;;5074266;28;20037;-63
2022/09/09 05:48:39;;;;;;;24.42;4.65;;;33.50;54.30;;;;;;5038870;28;20134;-64
2022/09/09 05:51:08;;;;;;;20.50;3.33;;;33.50;54.40;;;;;;5056322;28;20073;-66
2022/09/09 05:53:35;;;;;;;16.60;3.47;;;33.40;54.70;;;;;;5074877;28;20050;-64
2022/09/09 05:56:05;;;;;;;19.48;4.35;;;33.40;55.10;;;;;;5074454;28;20058;-64
2022/09/09 05:58:35;;;;;;;19.13;3.78;;;33.30;55.20;;;;;;5073769;28;20547;-67
2022/09/09 06:01:13;;;;;;;17.55;3.55;;;33.20;55.50;;;;;;5075183;28;20041;-64
2022/09/09 06:03:41;;;;;;;9.85;2.92;;;33.20;55.80;;;;;;5073318;28;20089;-64
2022/09/09 06:06:10;;;;;;;11.00;3.00;;;33.20;55.90;;;;;;5038701;28;20060;-64
2022/09/09 06:08:39;;;;;;;10.50;2.40;;;33.20;56.10;;;;;;5077760;28;20045;-64
2022/09/09 06:11:20;;;;;;;8.65;2.20;;;33.20;56.30;;;;;;5060247;28;20500;-64
2022/09/09 06:13:47;;;;;;;12.20;2.30;;;33.10;56.50;;;;;;5074711;28;20412;-64
2022/09/09 06:16:18;;;;;;;23.63;2.30;;;33.10;56.90;;;;;;5075134;28;20409;-64
2022/09/09 06:18:45;;;;;;;13.13;2.20;;;33.00;57.30;;;;;;5074658;28;20491;-66
2022/09/09 06:21:23;;;;;;;23.75;2.90;;;32.90;58.00;;;;;;5072682;28;20047;-64
2022/09/09 06:23:51;;;;;;;10.75;2.10;;;32.90;58.40;;;;;;5072387;28;20234;-64
2022/09/09 06:26:26;;;;;;;13.20;2.03;;;32.90;59.00;;;;;;5069858;28;20078;-64
2022/09/09 06:28:55;;;;;;;25.27;2.70;;;32.80;59.70;;;;;;5072825;28;20108;-63
2022/09/09 06:31:23;;;;;;;13.27;2.15;;;32.70;60.50;;;;;;5068287;28;20352;-65
2022/09/09 06:33:51;;;;;;;19.85;1.88;;;32.70;61.70;;;;;;5053791;28;20136;-67
2022/09/09 06:36:20;;;;;;;26.02;2.28;;;32.60;63.50;;;;;;5069416;28;20585;-66
2022/09/09 06:38:47;;;;;;;20.65;2.28;;;32.60;64.10;;;;;;5054356;28;20554;-64
2022/09/09 06:41:16;;;;;;;32.00;2.55;;;32.50;64.90;;;;;;5070510;28;20042;-67
2022/09/09 06:43:43;;;;;;;18.98;2.40;;;32.40;66.80;;;;;;5074071;28;20040;-67
2022/09/09 06:46:12;;;;;;;23.13;2.58;;;32.30;68.30;;;;;;5068999;28;20050;-64
2022/09/09 06:48:44;;;;;;;36.42;2.92;;;32.30;69.30;;;;;;5069732;28;20104;-63
2022/09/09 06:51:17;;;;;;;61.65;4.60;;;32.20;72.20;;;;;;5072310;28;20053;-63
2022/09/09 06:53:46;;;;;;;42.42;3.53;;;31.90;73.50;;;;;;5070791;28;20143;-64
2022/09/09 06:56:25;;;;;;;60.00;4.15;;;31.90;74.40;;;;;;5073438;28;20067;-64
2022/09/09 06:58:52;;;;;;;41.75;3.20;;;31.70;74.50;;;;;;5072930;28;20174;-64
2022/09/09 07:01:23;;;;;;;39.42;3.10;;;31.60;73.90;;;;;;5071471;28;20048;-65
2022/09/09 07:03:52;;;;;;;45.13;3.95;;;31.60;73.50;;;;;;5073368;28;20137;-65
2022/09/09 07:06:24;;;;;;;54.70;4.78;;;31.60;72.70;;;;;;5069435;28;20055;-63
2022/09/09 07:08:56;;;;;;;56.28;3.97;;;31.60;72.10;;;;;;5071621;28;20102;-63
2022/09/09 07:11:25;;;;;;;38.53;3.28;;;31.50;72.40;;;;;;5074012;28;20053;-64
2022/09/09 07:13:52;;;;;;;28.02;2.80;;;31.50;72.20;;;;;;5072824;28;20064;-64
2022/09/09 07:16:20;;;;;;;29.30;3.33;;;31.50;72.10;;;;;;5069821;28;20063;-64
2022/09/09 07:18:47;;;;;;;18.92;2.60;;;31.50;72.00;;;;;;5088599;28;20140;-66
2022/09/09 07:21:14;;;;;;;39.83;3.97;;;31.30;72.50;;;;;;5070649;28;20104;-66
2022/09/09 07:23:41;;;;;;;30.05;2.17;;;31.30;72.80;;;;;;5068056;28;20090;-66
2022/09/09 07:26:19;;;;;;;47.92;3.92;;;31.30;73.10;;;;;;5071866;28;20149;-65
2022/09/09 07:28:46;;;;;;;41.10;3.38;;;31.20;72.90;;;;;;5070524;28;20085;-65
2022/09/09 07:31:21;;;;;;;41.00;3.55;;;31.20;72.90;;;;;;5072101;28;20061;-63
2022/09/09 07:33:48;;;;;;;83.57;5.40;;;31.10;73.20;;;;;;5053688;28;20105;-64
2022/09/09 07:36:23;;;;;;;80.70;5.10;;;31.00;73.90;;;;;;5071419;28;20476;-65
2022/09/09 07:38:56;;;;;;;77.78;4.75;;;31.00;74.80;;;;;;5089673;28;20525;-63
2022/09/09 07:41:30;;;;;;;62.13;4.80;;;30.80;76.10;;;;;;5085380;28;20434;-64
2022/09/09 07:43:56;;;;;;;43.08;4.05;;;30.60;77.00;;;;;;5072232;28;20050;-65
2022/09/09 07:46:25;;;;;;;40.05;4.05;;;30.60;77.50;;;;;;5072721;28;20064;-66
2022/09/09 07:48:54;;;;;;;31.52;3.55;;;30.70;77.80;;;;;;5072222;28;20140;-65
2022/09/09 07:51:25;;;;;;;28.23;2.85;;;30.70;78.30;;;;;;5071876;28;20099;-63
2022/09/09 07:54:03;;;;;;;25.80;2.92;;;30.70;78.70;;;;;;5053266;28;20057;-63
2022/09/09 07:56:31;;;;;;;26.08;3.40;;;30.60;78.90;;;;;;5066659;28;20123;-64
2022/09/09 07:58:58;;;;;;;35.33;3.30;;;30.70;79.30;;;;;;5067825;28;20132;-65
2022/09/09 08:01:37;;;;;;;41.47;4.82;;;30.60;80.10;;;;;;5068239;28;20569;-66
2022/09/09 08:04:08;;;;;;;30.83;3.70;;;30.60;80.60;;;;;;5089659;28;20059;-64
2022/09/09 08:06:39;;;;;;;51.50;4.15;;;30.60;80.70;;;;;;5051705;28;20063;-63
2022/09/09 08:09:06;;;;;;;35.53;4.00;;;30.70;80.90;;;;;;5071169;28;20062;-63
2022/09/09 08:11:33;;;;;;;33.97;4.03;;;30.50;81.70;;;;;;5074727;28;20389;-63
2022/09/09 08:14:00;;;;;;;52.67;4.07;;;30.40;82.30;;;;;;5071427;28;20048;-63
2022/09/09 08:16:32;;;;;;;39.40;4.47;;;30.40;82.80;;;;;;5067832;28;20178;-65
2022/09/09 08:18:59;;;;;;;42.58;5.35;;;30.40;83.10;;;;;;5072030;28;20056;-67
2022/09/09 08:21:28;;;;;;;49.42;6.40;;;30.40;82.60;;;;;;5070681;28;20081;-64
2022/09/09 08:23:56;;;;;;;64.65;7.35;;;30.40;82.00;;;;;;5081540;28;20078;-64
2022/09/09 08:26:26;;;;;;;48.50;6.22;;;30.40;81.40;;;;;;5071048;28;20532;-63
2022/09/09 08:28:55;;;;;;;38.53;5.45;;;30.30;82.40;;;;;;5071569;28;20150;-64
2022/09/09 08:31:32;;;;;;;41.55;4.80;;;30.30;83.50;;;;;;5072247;28;20081;-65
2022/09/09 08:34:00;;;;;;;30.83;4.40;;;30.30;83.90;;;;;;5084053;28;20122;-64
2022/09/09 08:36:29;;;;;;;39.10;6.40;;;30.30;83.70;;;;;;5071452;28;20565;-65
2022/09/09 08:38:57;;;;;;;38.00;7.32;;;30.30;85.00;;;;;;5070539;28;20055;-64
2022/09/09 08:41:39;;;;;;;35.70;6.95;;;30.20;85.80;;;;;;5072100;28;20470;-64
2022/09/09 08:44:23;;;;;;;25.40;4.93;;;30.20;86.80;;;;;;5066912;28;20029;-64
2022/09/09 08:47:06;;;;;;;24.92;4.18;;;30.20;87.90;;;;;;5067022;28;20140;-65
2022/09/09 08:49:49;;;;;;;15.30;3.10;;;30.00;88.60;;;;;;5066220;28;20082;-64
2022/09/09 08:52:36;;;;;;;15.90;2.85;;;30.00;89.30;;;;;;5072987;28;20096;-64
2022/09/09 08:55:21;;;;;;;18.15;2.97;;;29.90;89.30;;;;;;5073958;28;20466;-64
2022/09/09 08:57:53;;;;;;;15.40;2.72;;;29.70;99.90;;;;;;5069284;28;20073;-62
2022/09/09 09:00:20;;;;;;;20.70;3.00;;;29.60;91.30;;;;;;5085827;28;20042;-63
2022/09/09 09:03:09;;;;;;;16.73;2.40;;;29.60;89.60;;;;;;5070943;28;20052;-63
2022/09/09 09:06:02;;;;;;;21.20;2.80;;;29.60;89.70;;;;;;5070999;28;20140;-64
2022/09/09 09:08:47;;;;;;;17.60;3.05;;;29.70;97.40;;;;;;5069793;28;20031;-64
2022/09/09 09:11:16;;;;;;;20.90;2.95;;;29.70;89.70;;;;;;5070997;28;20056;-65
2022/09/09 09:13:50;;;;;;;14.57;2.55;;;29.60;89.60;;;;;;5073531;28;20126;-65
2022/09/09 09:16:52;;;;;;;22.75;3.55;;;29.70;90.40;;;;;;5074311;28;20032;-62
2022/09/09 09:19:23;;;;;;;18.13;2.75;;;29.00;97.20;;;;;;5015569;28;20021;-63
2022/09/09 09:22:10;;;;;;;15.50;2.60;;;29.60;89.30;;;;;;5029455;28;20057;-63
2022/09/09 09:25:10;;;;;;;14.32;2.83;;;29.10;99.80;;;;;;5029804;28;20033;-64
2022/09/09 09:27:47;;;;;;;16.00;2.53;;;29.50;90.30;;;;;;5030136;28;20028;-64
2022/09/09 09:30:13;;;;;;;;;;;;;;;;;;5029338;28;20259;-64
2022/09/09 09:32:47;;;;;;;20.07;2.67;;;28.60;99.90;;;;;;5014651;28;19952;-64
2022/09/09 09:35:14;;;;;;;15.50;2.60;;;31.70;99.90;;;;;;5013927;28;20053;-65
2022/09/09 09:37:46;;;;;;;16.73;2.60;;;29.40;89.70;;;;;;5029756;28;20029;-63
2022/09/09 09:40:21;;;;;;;8.30;2.10;;;29.40;89.30;;;;;;5029191;28;20055;-64
2022/09/09 09:43:00;;;;;;;16.88;2.53;;;29.40;87.70;;;;;;5028931;28;20086;-65
2022/09/09 09:45:35;;;;;;;11.70;2.53;;;29.30;87.80;;;;;;5013092;28;20058;-63
2022/09/09 09:48:06;;;;;;;11.75;1.75;;;29.30;87.70;;;;;;5013033;28;20607;-64
2022/09/09 09:50:34;;;;;;;11.25;2.20;;;29.40;87.60;;;;;;5013896;28;20070;-67
2022/09/09 09:53:05;;;;;;;14.90;2.10;;;29.40;87.00;;;;;;5030145;28;20151;-64
2022/09/09 09:55:33;;;;;;;13.60;2.10;;;29.40;86.90;;;;;;5033156;28;20078;-64
2022/09/09 09:58:07;;;;;;;16.27;3.08;;;29.40;86.90;;;;;;5075160;28;20109;-64
2022/09/09 10:00:37;;;;;;;11.80;2.72;;;29.30;87.20;;;;;;5074677;28;20069;-63
2022/09/09 10:03:28;;;;;;;11.25;2.78;;;29.40;87.30;;;;;;5074468;28;20066;-64
2022/09/09 10:05:56;;;;;;;18.88;3.38;;;29.30;87.50;;;;;;5072784;28;20532;-63
2022/09/09 10:08:27;;;;;;;19.58;3.28;;;29.30;87.90;;;;;;5071385;28;20146;-63
2022/09/09 10:11:04;;;;;;;18.85;3.28;;;29.30;88.40;;;;;;5072779;28;20529;-64
2022/09/09 10:14:04;;;;;;;13.45;2.45;;;29.20;90.30;;;;;;5076625;28;20062;-64
2022/09/09 10:16:49;;;;;;;15.45;2.38;;;29.10;90.50;;;;;;5089454;28;20100;-65
2022/09/09 10:19:31;;;;;;;12.23;2.05;;;29.10;90.60;;;;;;5071998;28;20191;-65
2022/09/09 10:22:28;;;;;;;14.13;2.30;;;29.00;90.80;;;;;;5070117;28;20082;-65
2022/09/09 10:25:22;;;;;;;11.52;2.05;;;28.90;90.70;;;;;;5068207;28;20154;-64
2022/09/09 10:27:58;;;;;;;11.85;2.40;;;28.90;90.90;;;;;;5074354;28;20070;-66
2022/09/09 10:30:55;;;;;;;9.27;2.23;;;28.90;91.00;;;;;;5076654;28;20066;-64
2022/09/09 10:33:35;;;;;;;12.00;2.13;;;28.90;90.90;;;;;;5051715;28;20301;-64
2022/09/09 10:36:22;;;;;;;12.30;2.22;;;28.80;90.60;;;;;;5053439;28;20091;-64
2022/09/09 10:38:52;;;;;;;10.10;1.97;;;28.90;90.50;;;;;;5074510;28;20380;-63
2022/09/09 10:42:12;;;;;;;16.60;2.20;;;29.00;90.30;;;;;;5082365;28;20070;-64
2022/09/09 10:45:08;;;;;;;21.13;2.55;;;29.00;90.10;;;;;;5049286;28;20067;-64
2022/09/09 10:48:22;;;;;;;12.60;2.13;;;29.00;89.80;;;;;;5031526;28;20059;-65
2022/09/09 10:51:18;;;;;;;18.33;2.67;;;29.00;89.90;;;;;;5025935;28;20064;-65
2022/09/09 10:54:03;;;;;;;17.27;2.58;;;29.00;89.70;;;;;;5037604;28;20060;-64
2022/09/09 10:56:30;;;;;;;15.80;2.70;;;29.00;89.70;;;;;;5032776;28;20084;-65
2022/09/09 10:58:59;;;;;;;15.68;2.28;;;29.00;89.70;;;;;;5043553;28;20107;-65
2022/09/09 11:01:44;;;;;;;14.75;2.45;;;29.10;89.70;;;;;;5048550;28;20507;-65
2022/09/09 11:04:35;;;;;;;17.25;2.30;;;29.10;89.30;;;;;;5042612;28;20054;-67
2022/09/09 11:07:08;;;;;;;25.17;2.67;;;29.10;89.10;;;;;;5047308;28;20984;-64
2022/09/09 11:09:43;;;;;;;15.60;2.17;;;29.10;88.90;;;;;;5048318;28;20313;-66
2022/09/09 11:12:17;;;;;;;16.73;2.25;;;29.10;88.90;;;;;;5043805;28;20384;-63
2022/09/09 11:14:49;;;;;;;19.38;2.22;;;29.20;88.70;;;;;;5053103;28;20445;-68
2022/09/09 11:17:40;;;;;;;21.45;2.00;;;29.20;88.40;;;;;;5073579;28;20126;-65
2022/09/09 11:20:11;;;;;;;22.83;2.10;;;29.20;88.20;;;;;;5053024;28;20063;-63
2022/09/09 11:22:52;;;;;;;15.88;2.08;;;29.20;88.50;;;;;;5068825;28;20212;-63
2022/09/09 11:25:25;;;;;;;14.75;2.50;;;29.20;88.50;;;;;;5084597;28;20153;-64
2022/09/09 11:28:22;;;;;;;15.10;2.30;;;29.20;88.60;;;;;;5053255;28;20065;-63
2022/09/09 11:31:20;;;;;;;21.42;2.20;;;29.20;88.70;;;;;;5072194;28;20059;-65
2022/09/09 11:34:01;;;;;;;16.08;2.00;;;29.20;88.70;;;;;;5057385;28;20523;-64
2022/09/09 11:36:47;;;;;;;20.80;2.17;;;29.20;88.90;;;;;;5052612;28;20527;-63
2022/09/09 11:40:07;;;;;;;20.77;2.28;;;29.20;89.00;;;;;;5086003;28;20054;-64
2022/09/09 11:42:33;;;;;;;23.58;2.63;;;29.20;89.10;;;;;;5046802;28;20068;-64
2022/09/09 11:45:11;;;;;;;24.20;2.80;;;29.20;89.30;;;;;;5067857;28;20531;-63
2022/09/09 11:47:37;;;;;;;29.73;2.55;;;29.30;89.30;;;;;;5067313;28;20151;-63
2022/09/09 11:50:16;;;;;;;22.30;2.20;;;29.30;89.10;;;;;;5070809;28;20396;-63
2022/09/09 11:52:48;;;;;;;21.80;2.58;;;29.30;89.20;;;;;;5067816;28;20476;-64
2022/09/09 11:55:32;;;;;;;20.10;2.42;;;29.30;89.30;;;;;;5067363;28;20509;-63
2022/09/09 11:58:00;;;;;;;24.48;2.35;;;29.30;89.90;;;;;;5085131;28;20061;-64
2022/09/09 12:00:45;;;;;;;26.40;2.53;;;29.20;90.60;;;;;;5084714;28;20052;-66
2022/09/09 12:03:35;;;;;;;23.75;3.08;;;29.20;91.80;;;;;;5070685;28;20054;-64
2022/09/09 12:06:14;;;;;;;22.23;2.60;;;29.10;92.70;;;;;;5072746;28;20401;-65
2022/09/09 12:08:45;;;;;;;20.17;2.65;;;28.90;93.40;;;;;;5068293;28;20447;-65
2022/09/09 12:11:11;;;;;;;19.55;1.98;;;28.80;93.70;;;;;;5072943;28;20107;-65
2022/09/09 12:13:38;;;;;;;28.77;2.90;;;28.60;94.70;;;;;;5071151;28;20722;-64
2022/09/09 12:16:05;;;;;;;22.13;2.60;;;28.60;95.40;;;;;;5073720;28;20092;-65
2022/09/09 12:18:36;;;;;;;16.45;2.28;;;28.60;96.40;;;;;;5073153;28;20516;-65
2022/09/09 12:21:18;;;;;;;24.42;2.63;;;28.50;97.10;;;;;;5071707;28;20068;-65
2022/09/09 12:23:53;;;;;;;17.60;2.13;;;28.30;97.30;;;;;;5085124;28;20480;-64
2022/09/09 12:26:26;;;;;;;15.88;2.40;;;28.40;99.20;;;;;;5072237;28;20071;-66
2022/09/09 12:29:05;;;;;;;17.42;2.00;;;28.30;99.90;;;;;;5071581;28;20058;-66
2022/09/09 12:31:40;;;;;;;15.93;2.45;;;28.20;99.90;;;;;;5070610;28;20108;-64
2022/09/09 12:34:39;;;;;;;16.25;2.80;;;28.10;99.90;;;;;;5072626;28;20514;-64
2022/09/09 12:37:23;;;;;;;16.98;2.40;;;27.90;99.90;;;;;;4999221;28;20133;-64
2022/09/09 12:40:15;;;;;;;26.13;2.63;;;27.90;99.90;;;;;;5016406;28;20072;-67
2022/09/09 12:42:42;;;;;;;23.88;2.60;;;27.90;99.90;;;;;;5009516;28;20069;-65
2022/09/09 12:45:20;;;;;;;15.82;2.47;;;27.80;99.90;;;;;;5015936;28;20096;-65
2022/09/09 12:47:47;;;;;;;15.48;2.00;;;27.70;99.90;;;;;;5009698;28;20174;-64
2022/09/09 12:50:26;;;;;;;20.40;2.65;;;27.60;99.90;;;;;;5013504;28;20071;-66
2022/09/09 12:52:59;;;;;;;19.42;2.30;;;27.50;99.90;;;;;;5015156;28;20063;-65
2022/09/09 12:55:30;;;;;;;25.67;3.05;;;27.40;99.90;;;;;;5010088;28;20139;-64
2022/09/09 12:57:59;;;;;;;22.80;3.00;;;27.30;99.90;;;;;;5010043;28;20073;-65
2022/09/09 13:00:26;;;;;;;23.15;3.40;;;27.20;99.90;;;;;;5009032;28;20456;-65
2022/09/09 13:02:55;;;;;;;17.90;2.85;;;27.10;99.90;;;;;;5009426;28;21140;-66
2022/09/09 13:05:27;;;;;;;19.30;3.10;;;26.90;99.90;;;;;;5025926;28;20060;-64
2022/09/09 13:08:05;;;;;;;19.52;3.00;;;26.80;99.90;;;;;;5026326;28;20176;-65
2022/09/09 13:10:38;;;;;;;16.42;3.25;;;26.80;99.90;;;;;;5025513;28;20065;-64
2022/09/09 13:13:13;;;;;;;17.65;2.58;;;26.70;99.90;;;;;;5029500;28;20060;-65
2022/09/09 13:15:39;;;;;;;13.80;2.17;;;26.50;99.90;;;;;;5063876;28;20133;-65
2022/09/09 13:18:12;;;;;;;18.55;3.25;;;26.40;99.90;;;;;;5056899;28;20159;-66
2022/09/09 13:20:39;;;;;;;13.02;3.28;;;26.40;99.90;;;;;;5066329;28;20094;-66